Søk
Bilder fra klubbens virksomhet
Tooltip
Kim M Mortensen har fløyet solo
Tooltip
Espen Wiik har fløyet solo
Tooltip
Rashad Habib har fløyet solo
Tooltip
David Froholt har fløyet solo
Tooltip
Leif Olsen er pilot
  • Tilfeldig bilde
     
    Opplastet 04-09-2011
    Opplastet 21-05-2008
    Opplastet 22-05-2008
     
  • Siste bilde
     
    Opplastet 05-06-2018
    Opplastet 31-10-2017
    Opplastet 31-10-2017
     
«StartForrige1234NesteSiste»
Side 1 av 4
 
 
METAR
2018/06/21 02:20 ENCN 210220Z AUTO VRB01KT 9999 SCT098/// BKN110/// OVC150/// 08/07 Q1006
TAF
2018/06/20 20:12 TAF AMD TAF AMD ENCN 202008Z 2020/2021 06008KT 9999 SCT008 BKN015 TEMPO 2020/2021 4000 DZ BR BKN008
LN-KFK
Operativ VFR-natt
VFR dag
03:04 - 23:54
Brannvakt
Inaktiv
Banner
Banner
Banner
Banner
Banner